createdAt,value
2022-10-15T00:01:26.407Z,3.80
2022-10-15T00:06:24.765Z,4.03
2022-10-15T00:11:26.949Z,3.90
2022-10-15T00:16:27.711Z,3.03
2022-10-15T00:21:26.540Z,4.70
2022-10-15T00:26:28.205Z,4.07
2022-10-15T00:31:28.113Z,3.73
2022-10-15T00:36:28.521Z,3.80
2022-10-15T00:41:30.565Z,5.00
2022-10-15T00:46:32.959Z,4.40
2022-10-15T00:51:35.652Z,3.83
2022-10-15T00:56:37.695Z,3.83
2022-10-15T01:01:36.989Z,5.00
2022-10-15T01:06:35.525Z,4.00
2022-10-15T01:11:41.825Z,3.70
2022-10-15T01:16:50.695Z,3.80
2022-10-15T01:21:53.411Z,4.70
2022-10-15T01:27:24.847Z,4.70
2022-10-15T01:32:28.291Z,4.47
2022-10-15T01:37:33.319Z,5.80
2022-10-15T01:42:35.569Z,5.50
2022-10-15T01:47:39.106Z,5.87
2022-10-15T01:52:41.125Z,4.87
2022-10-15T01:57:41.970Z,5.87
2022-10-15T02:02:42.087Z,4.17
2022-10-15T02:07:48.027Z,5.33
2022-10-15T02:12:58.534Z,6.13
2022-10-15T02:18:05.472Z,6.40
2022-10-15T02:23:07.943Z,7.07
2022-10-15T02:28:07.468Z,5.60
2022-10-15T02:33:07.596Z,6.90
2022-10-15T02:38:09.111Z,6.90
2022-10-15T02:43:11.435Z,7.17
2022-10-15T02:48:10.912Z,8.27
2022-10-15T02:53:10.352Z,7.03
2022-10-15T02:58:08.635Z,8.13
2022-10-15T03:03:06.975Z,6.57
2022-10-15T03:08:06.966Z,8.07
2022-10-15T03:13:05.940Z,6.40
2022-10-15T03:18:09.921Z,9.00
2022-10-15T03:23:09.853Z,4.80
2022-10-15T03:28:08.155Z,5.17
2022-10-15T03:33:10.546Z,6.83
2022-10-15T03:38:10.681Z,5.57
2022-10-15T03:43:09.396Z,5.47
2022-10-15T03:48:08.049Z,5.00
2022-10-15T03:53:07.082Z,4.83
2022-10-15T03:58:07.344Z,5.37
2022-10-15T04:03:10.543Z,6.80
2022-10-15T04:08:08.738Z,8.60
2022-10-15T04:13:12.590Z,7.30
2022-10-15T04:18:14.031Z,8.67
2022-10-15T04:23:12.694Z,5.77
2022-10-15T04:28:16.177Z,7.57
2022-10-15T04:33:17.897Z,4.13
2022-10-15T04:38:16.088Z,4.13
2022-10-15T04:43:32.648Z,4.70
2022-10-15T04:48:38.985Z,4.93
2022-10-15T04:53:43.099Z,6.60
2022-10-15T04:58:43.298Z,5.00
2022-10-15T05:03:44.940Z,5.20
2022-10-15T05:08:44.029Z,8.00
2022-10-15T05:13:50.245Z,5.87
2022-10-15T05:18:51.735Z,6.30
2022-10-15T05:23:50.250Z,7.17
2022-10-15T05:29:11.797Z,5.73
2022-10-15T05:34:10.774Z,7.90
2022-10-15T05:39:16.538Z,7.60
2022-10-15T05:44:18.063Z,8.63
2022-10-15T05:49:16.431Z,9.93
2022-10-15T05:54:37.333Z,7.90
2022-10-15T05:59:36.794Z,5.90
2022-10-15T06:04:35.947Z,8.10
2022-10-15T06:09:34.317Z,7.53
2022-10-15T06:14:32.409Z,8.13
2022-10-15T06:19:31.891Z,10.87
2022-10-15T06:24:29.964Z,7.30
2022-10-15T06:29:28.093Z,8.03
2022-10-15T06:34:27.615Z,11.60
2022-10-15T06:39:27.082Z,8.73
2022-10-15T06:44:25.255Z,5.60
2022-10-15T06:49:23.386Z,6.00
2022-10-15T06:54:21.501Z,11.27
2022-10-15T06:59:21.901Z,6.47
2022-10-15T07:04:19.995Z,5.50
2022-10-15T07:09:19.154Z,5.30
2022-10-15T07:14:17.499Z,7.00
2022-10-15T07:19:17.018Z,7.50
2022-10-15T07:24:15.655Z,10.27
2022-10-15T07:29:13.984Z,8.93
2022-10-15T07:34:12.091Z,6.30
2022-10-15T07:39:12.053Z,5.40
2022-10-15T07:44:10.533Z,7.53
2022-10-15T07:49:09.494Z,8.10
2022-10-15T07:54:08.050Z,8.87
2022-10-15T07:59:09.454Z,8.07
2022-10-15T08:04:07.555Z,7.37
2022-10-15T08:09:07.070Z,10.57
2022-10-15T08:14:05.316Z,8.80
2022-10-15T08:19:05.011Z,5.80
2022-10-15T08:24:03.225Z,6.50
2022-10-15T08:29:04.444Z,6.00
2022-10-15T08:34:04.320Z,6.57
2022-10-15T08:39:02.487Z,7.93
2022-10-15T08:44:01.591Z,6.83
2022-10-15T08:49:01.986Z,5.80
2022-10-15T08:54:04.368Z,8.90
2022-10-15T08:59:07.673Z,4.60
2022-10-15T09:04:22.139Z,6.80
2022-10-15T09:09:31.283Z,5.90
2022-10-15T09:14:34.154Z,6.40
2022-10-15T09:19:35.986Z,5.07
2022-10-15T09:24:37.802Z,7.27
2022-10-15T09:29:43.301Z,4.70
2022-10-15T09:34:48.280Z,6.17
2022-10-15T09:40:03.482Z,6.70
2022-10-15T09:45:06.301Z,5.07
2022-10-15T09:50:06.373Z,4.37
2022-10-15T09:55:11.766Z,4.60
2022-10-15T10:00:13.647Z,3.40
2022-10-15T10:05:29.651Z,4.50
2022-10-15T10:17:27.121Z,3.53
2022-10-15T10:22:25.596Z,4.13
2022-10-15T10:27:26.057Z,4.10
2022-10-15T10:32:30.477Z,3.67
2022-10-15T10:37:29.455Z,3.17
2022-10-15T10:42:38.170Z,4.13
2022-10-15T10:47:40.088Z,3.00
2022-10-15T10:52:41.019Z,4.37
2022-10-15T10:57:46.419Z,2.93
2022-10-15T11:02:46.029Z,3.00
2022-10-15T11:07:53.212Z,3.30
2022-10-15T11:13:06.248Z,4.60
2022-10-15T11:18:28.976Z,3.77
2022-10-15T11:23:44.435Z,3.20
2022-10-15T11:28:55.533Z,2.80
2022-10-15T11:34:09.433Z,2.37
2022-10-15T11:39:23.674Z,2.00
2022-10-15T11:44:38.461Z,2.40
2022-10-15T11:49:46.198Z,2.13
2022-10-15T11:54:48.882Z,2.17
2022-10-15T11:59:53.064Z,1.77
2022-10-15T12:04:56.699Z,1.80
2022-10-15T12:09:57.996Z,2.10
2022-10-15T12:15:14.383Z,2.93
2022-10-15T12:20:17.711Z,3.53
2022-10-15T12:25:47.048Z,3.60
2022-10-15T12:30:56.584Z,3.07
2022-10-15T12:35:58.436Z,4.50
2022-10-15T12:40:59.982Z,4.30
2022-10-15T12:46:02.450Z,6.27
2022-10-15T12:51:37.989Z,5.17
2022-10-15T12:56:40.673Z,5.70
2022-10-15T13:01:53.648Z,4.27
2022-10-15T13:06:53.491Z,5.20
2022-10-15T13:11:54.837Z,6.00
2022-10-15T13:16:53.824Z,5.07
2022-10-15T13:21:54.174Z,4.33
2022-10-15T13:26:54.979Z,7.23
2022-10-15T13:31:55.565Z,4.77
2022-10-15T13:36:55.433Z,6.07
2022-10-15T13:42:06.910Z,6.30
2022-10-15T13:47:18.253Z,4.93
2022-10-15T13:52:16.346Z,5.10
2022-10-15T13:57:17.989Z,5.30
2022-10-15T14:02:16.315Z,4.53
2022-10-15T14:07:25.056Z,6.10
2022-10-15T14:12:24.834Z,3.80
2022-10-15T14:17:25.346Z,5.10
2022-10-15T14:22:25.606Z,4.37
2022-10-15T14:27:27.330Z,4.33
2022-10-15T14:32:27.903Z,3.80
2022-10-15T14:37:31.499Z,6.10
2022-10-15T14:42:33.535Z,4.07
2022-10-15T14:47:33.176Z,3.77
2022-10-15T14:57:36.582Z,4.90
2022-10-15T15:02:34.906Z,4.57
2022-10-15T15:07:33.073Z,3.60
2022-10-15T15:12:33.144Z,4.93
2022-10-15T15:17:32.532Z,4.40
2022-10-15T15:22:32.673Z,3.90
2022-10-15T15:27:37.194Z,3.80
2022-10-15T15:32:35.775Z,3.40
2022-10-15T15:37:33.858Z,3.60
2022-10-15T15:42:34.247Z,4.57
2022-10-15T15:47:32.383Z,4.60
2022-10-15T15:52:32.628Z,5.00
2022-10-15T15:57:35.844Z,4.37
2022-10-15T16:02:34.080Z,3.27
2022-10-15T16:07:32.411Z,3.63
2022-10-15T16:12:30.772Z,3.37
2022-10-15T16:17:30.223Z,3.43
2022-10-15T16:22:28.383Z,4.27
2022-10-15T16:27:26.856Z,4.93
2022-10-15T16:32:26.037Z,3.70
2022-10-15T16:37:25.918Z,4.60
2022-10-15T16:42:24.148Z,4.00
2022-10-15T16:47:22.440Z,3.30
2022-10-15T16:59:16.593Z,3.50
2022-10-15T17:04:14.709Z,4.07
2022-10-15T17:09:13.011Z,3.00
2022-10-15T17:14:12.806Z,3.10
2022-10-15T17:19:14.568Z,2.90
2022-10-15T17:24:15.070Z,3.00
2022-10-15T17:29:16.308Z,4.13
2022-10-15T17:34:16.228Z,3.70
2022-10-15T17:39:15.997Z,3.03
2022-10-15T17:44:15.233Z,3.00
2022-10-15T17:49:18.114Z,3.60
2022-10-15T17:54:17.690Z,2.67
2022-10-15T17:59:15.872Z,2.50
2022-10-15T18:04:14.047Z,2.47
2022-10-15T18:09:12.393Z,2.53
2022-10-15T18:14:11.871Z,3.77
2022-10-15T18:19:10.296Z,2.63
2022-10-15T18:24:08.380Z,2.57
2022-10-15T18:29:07.075Z,2.90
2022-10-15T18:34:06.514Z,2.43
2022-10-15T18:39:04.892Z,2.30
2022-10-15T18:44:04.772Z,2.57
2022-10-15T18:49:03.614Z,2.10
2022-10-15T18:54:03.426Z,2.53
2022-10-15T18:59:01.504Z,1.50
2022-10-15T19:04:00.926Z,3.37
2022-10-15T19:08:59.901Z,2.20
2022-10-15T19:14:03.288Z,2.10
2022-10-15T19:19:02.321Z,2.27
2022-10-15T19:24:01.273Z,1.90
2022-10-15T19:28:59.510Z,1.90
2022-10-15T19:33:59.359Z,1.70
2022-10-15T19:39:02.259Z,1.67
2022-10-15T19:44:00.788Z,1.70
2022-10-15T19:49:00.270Z,1.90
2022-10-15T19:54:00.120Z,1.80
2022-10-15T19:59:03.802Z,1.50
2022-10-15T20:04:06.862Z,1.63
2022-10-15T20:09:05.722Z,1.57
2022-10-15T20:14:04.035Z,2.10
2022-10-15T20:19:04.582Z,1.60
2022-10-15T20:24:04.442Z,1.70
2022-10-15T20:29:03.159Z,2.80
2022-10-15T20:34:01.858Z,1.50
2022-10-15T20:39:02.173Z,1.50
2022-10-15T20:44:01.533Z,1.73
2022-10-15T20:49:07.812Z,1.50
2022-10-15T20:54:09.033Z,1.83
2022-10-15T20:59:07.110Z,2.00
2022-10-15T21:04:05.541Z,2.10
2022-10-15T21:15:47.617Z,1.60
2022-10-15T21:20:45.665Z,1.87
2022-10-15T21:25:43.760Z,1.77
2022-10-15T21:30:42.240Z,2.57
2022-10-15T21:35:41.701Z,1.60
2022-10-15T21:40:39.744Z,2.00
2022-10-15T21:45:37.782Z,2.40
2022-10-15T21:50:35.854Z,2.80
2022-10-15T21:55:35.259Z,2.97
2022-10-15T22:00:33.362Z,2.23
2022-10-15T22:05:33.533Z,3.33
2022-10-15T22:10:31.655Z,2.60
2022-10-15T22:15:31.188Z,3.60
2022-10-15T22:20:29.363Z,3.10
2022-10-15T22:25:27.524Z,3.10
2022-10-15T22:30:25.872Z,2.27
2022-10-15T22:35:25.336Z,2.43
2022-10-15T22:40:24.211Z,3.03
2022-10-15T22:45:22.421Z,3.20
2022-10-15T22:50:20.549Z,3.30
2022-10-15T22:55:20.118Z,3.10
2022-10-15T23:00:18.294Z,3.00
2022-10-15T23:05:16.572Z,4.10
2022-10-15T23:10:14.662Z,3.00
2022-10-15T23:15:14.145Z,2.47
2022-10-15T23:20:12.842Z,2.30
2022-10-15T23:25:11.106Z,2.37
2022-10-15T23:30:21.098Z,3.20
2022-10-15T23:35:24.044Z,2.13
2022-10-15T23:40:22.153Z,2.97
2022-10-15T23:45:20.234Z,2.53
2022-10-15T23:50:18.486Z,2.07
2022-10-15T23:55:18.018Z,2.40
